sensor_id;sensor_type;location;lat;lon;timestamp;P1;durP1;ratioP1;P2;durP2;ratioP2
64063;SDS011;50314;50.618;10.642;2023-02-27T00:01:55;3.25;;;2.50;;
64063;SDS011;50314;50.618;10.642;2023-02-27T00:04:21;3.10;;;2.20;;
64063;SDS011;50314;50.618;10.642;2023-02-27T00:06:46;3.25;;;2.00;;
64063;SDS011;50314;50.618;10.642;2023-02-27T00:09:12;2.20;;;1.77;;
64063;SDS011;50314;50.618;10.642;2023-02-27T00:11:37;3.08;;;1.90;;
64063;SDS011;50314;50.618;10.642;2023-02-27T00:14:03;3.75;;;2.38;;
64063;SDS011;50314;50.618;10.642;2023-02-27T00:16:28;3.08;;;2.10;;
64063;SDS011;50314;50.618;10.642;2023-02-27T00:18:54;3.38;;;2.50;;
64063;SDS011;50314;50.618;10.642;2023-02-27T00:21:21;4.20;;;2.22;;
64063;SDS011;50314;50.618;10.642;2023-02-27T00:23:47;3.30;;;2.38;;
64063;SDS011;50314;50.618;10.642;2023-02-27T00:26:12;4.95;;;2.30;;
64063;SDS011;50314;50.618;10.642;2023-02-27T00:28:38;3.78;;;2.47;;
64063;SDS011;50314;50.618;10.642;2023-02-27T00:31:03;4.55;;;2.67;;
64063;SDS011;50314;50.618;10.642;2023-02-27T00:33:29;4.32;;;2.50;;
64063;SDS011;50314;50.618;10.642;2023-02-27T00:35:58;3.95;;;2.30;;
64063;SDS011;50314;50.618;10.642;2023-02-27T00:38:25;2.63;;;1.80;;
64063;SDS011;50314;50.618;10.642;2023-02-27T00:40:50;4.68;;;2.38;;
64063;SDS011;50314;50.618;10.642;2023-02-27T00:43:16;5.05;;;2.65;;
64063;SDS011;50314;50.618;10.642;2023-02-27T00:45:41;5.07;;;2.67;;
64063;SDS011;50314;50.618;10.642;2023-02-27T00:48:07;5.82;;;3.55;;
64063;SDS011;50314;50.618;10.642;2023-02-27T00:50:32;5.15;;;2.70;;
64063;SDS011;50314;50.618;10.642;2023-02-27T00:52:58;4.60;;;2.60;;
64063;SDS011;50314;50.618;10.642;2023-02-27T00:55:23;4.20;;;2.17;;
64063;SDS011;50314;50.618;10.642;2023-02-27T00:57:49;4.05;;;2.45;;
64063;SDS011;50314;50.618;10.642;2023-02-27T01:00:15;3.97;;;2.50;;
64063;SDS011;50314;50.618;10.642;2023-02-27T01:02:40;4.28;;;2.30;;
64063;SDS011;50314;50.618;10.642;2023-02-27T01:05:06;3.65;;;2.00;;
64063;SDS011;50314;50.618;10.642;2023-02-27T01:07:31;4.30;;;2.55;;
64063;SDS011;50314;50.618;10.642;2023-02-27T01:09:57;5.43;;;2.15;;
64063;SDS011;50314;50.618;10.642;2023-02-27T01:12:23;2.90;;;1.98;;
64063;SDS011;50314;50.618;10.642;2023-02-27T01:14:48;4.22;;;2.25;;
64063;SDS011;50314;50.618;10.642;2023-02-27T01:17:14;4.15;;;2.92;;
64063;SDS011;50314;50.618;10.642;2023-02-27T01:19:39;3.55;;;2.05;;
64063;SDS011;50314;50.618;10.642;2023-02-27T01:22:05;3.72;;;2.30;;
64063;SDS011;50314;50.618;10.642;2023-02-27T01:24:31;3.15;;;2.08;;
64063;SDS011;50314;50.618;10.642;2023-02-27T01:26:57;4.18;;;2.67;;
64063;SDS011;50314;50.618;10.642;2023-02-27T01:29:22;4.57;;;2.78;;
64063;SDS011;50314;50.618;10.642;2023-02-27T01:31:48;3.15;;;1.77;;
64063;SDS011;50314;50.618;10.642;2023-02-27T01:34:14;4.40;;;1.90;;
64063;SDS011;50314;50.618;10.642;2023-02-27T01:36:39;3.63;;;2.20;;
64063;SDS011;50314;50.618;10.642;2023-02-27T01:39:05;2.97;;;2.15;;
64063;SDS011;50314;50.618;10.642;2023-02-27T01:41:30;2.70;;;1.85;;
64063;SDS011;50314;50.618;10.642;2023-02-27T01:46:26;4.05;;;2.65;;
64063;SDS011;50314;50.618;10.642;2023-02-27T01:51:23;3.40;;;1.90;;
64063;SDS011;50314;50.618;10.642;2023-02-27T01:53:51;2.60;;;1.73;;
64063;SDS011;50314;50.618;10.642;2023-02-27T01:56:19;2.97;;;1.63;;
64063;SDS011;50314;50.618;10.642;2023-02-27T01:58:46;3.70;;;2.17;;
64063;SDS011;50314;50.618;10.642;2023-02-27T02:06:43;3.22;;;1.90;;
64063;SDS011;50314;50.618;10.642;2023-02-27T02:09:11;3.67;;;2.38;;
64063;SDS011;50314;50.618;10.642;2023-02-27T02:11:40;2.92;;;1.98;;
64063;SDS011;50314;50.618;10.642;2023-02-27T02:14:06;2.13;;;1.38;;
64063;SDS011;50314;50.618;10.642;2023-02-27T02:27:37;3.55;;;1.92;;
64063;SDS011;50314;50.618;10.642;2023-02-27T02:41:59;2.55;;;1.63;;
64063;SDS011;50314;50.618;10.642;2023-02-27T02:45:30;1.90;;;1.30;;
64063;SDS011;50314;50.618;10.642;2023-02-27T02:58:53;2.05;;;1.55;;
64063;SDS011;50314;50.618;10.642;2023-02-27T03:01:29;2.17;;;1.60;;
64063;SDS011;50314;50.618;10.642;2023-02-27T03:04:07;2.08;;;1.60;;
64063;SDS011;50314;50.618;10.642;2023-02-27T03:06:42;2.47;;;1.30;;
64063;SDS011;50314;50.618;10.642;2023-02-27T03:09:24;2.55;;;1.50;;
64063;SDS011;50314;50.618;10.642;2023-02-27T03:11:58;2.25;;;1.38;;
64063;SDS011;50314;50.618;10.642;2023-02-27T03:14:29;2.15;;;1.48;;
64063;SDS011;50314;50.618;10.642;2023-02-27T03:17:01;2.28;;;1.50;;
64063;SDS011;50314;50.618;10.642;2023-02-27T03:19:40;1.75;;;1.65;;
64063;SDS011;50314;50.618;10.642;2023-02-27T03:22:13;1.88;;;1.50;;
64063;SDS011;50314;50.618;10.642;2023-02-27T03:24:43;1.73;;;1.50;;
64063;SDS011;50314;50.618;10.642;2023-02-27T03:27:13;1.80;;;1.65;;
64063;SDS011;50314;50.618;10.642;2023-02-27T03:29:54;3.03;;;1.40;;
64063;SDS011;50314;50.618;10.642;2023-02-27T03:32:23;1.63;;;1.52;;
64063;SDS011;50314;50.618;10.642;2023-02-27T03:34:55;1.70;;;1.42;;
64063;SDS011;50314;50.618;10.642;2023-02-27T03:37:26;2.63;;;1.92;;
64063;SDS011;50314;50.618;10.642;2023-02-27T03:45:39;1.95;;;1.20;;
64063;SDS011;50314;50.618;10.642;2023-02-27T03:48:15;2.33;;;2.13;;
64063;SDS011;50314;50.618;10.642;2023-02-27T03:50:40;1.85;;;1.40;;
64063;SDS011;50314;50.618;10.642;2023-02-27T03:53:09;1.23;;;1.13;;
64063;SDS011;50314;50.618;10.642;2023-02-27T03:56:15;1.33;;;1.20;;
64063;SDS011;50314;50.618;10.642;2023-02-27T03:58:46;1.50;;;1.40;;
64063;SDS011;50314;50.618;10.642;2023-02-27T04:01:11;2.63;;;1.50;;
64063;SDS011;50314;50.618;10.642;2023-02-27T04:03:40;1.60;;;1.50;;
64063;SDS011;50314;50.618;10.642;2023-02-27T04:06:12;1.92;;;1.83;;
64063;SDS011;50314;50.618;10.642;2023-02-27T04:09:05;2.17;;;1.92;;
64063;SDS011;50314;50.618;10.642;2023-02-27T04:11:45;2.53;;;1.65;;
64063;SDS011;50314;50.618;10.642;2023-02-27T04:15:01;2.05;;;1.85;;
64063;SDS011;50314;50.618;10.642;2023-02-27T04:17:33;2.67;;;1.98;;
64063;SDS011;50314;50.618;10.642;2023-02-27T04:20:34;2.47;;;2.28;;
64063;SDS011;50314;50.618;10.642;2023-02-27T04:23:06;2.40;;;1.88;;
64063;SDS011;50314;50.618;10.642;2023-02-27T04:33:56;2.17;;;2.03;;
64063;SDS011;50314;50.618;10.642;2023-02-27T04:36:30;2.15;;;1.95;;
64063;SDS011;50314;50.618;10.642;2023-02-27T04:41:53;1.67;;;1.38;;
64063;SDS011;50314;50.618;10.642;2023-02-27T04:44:21;1.92;;;1.50;;
64063;SDS011;50314;50.618;10.642;2023-02-27T04:46:49;1.48;;;1.35;;
64063;SDS011;50314;50.618;10.642;2023-02-27T04:49:21;1.70;;;1.60;;
64063;SDS011;50314;50.618;10.642;2023-02-27T04:54:28;2.33;;;2.00;;
64063;SDS011;50314;50.618;10.642;2023-02-27T04:57:03;2.25;;;1.50;;
64063;SDS011;50314;50.618;10.642;2023-02-27T04:59:34;1.63;;;1.52;;
64063;SDS011;50314;50.618;10.642;2023-02-27T05:02:09;1.98;;;1.50;;
64063;SDS011;50314;50.618;10.642;2023-02-27T05:04:40;2.15;;;1.88;;
64063;SDS011;50314;50.618;10.642;2023-02-27T05:07:08;2.33;;;1.65;;
64063;SDS011;50314;50.618;10.642;2023-02-27T05:09:40;2.20;;;1.60;;
64063;SDS011;50314;50.618;10.642;2023-02-27T05:12:20;1.90;;;1.80;;
64063;SDS011;50314;50.618;10.642;2023-02-27T05:15:08;2.30;;;1.95;;
64063;SDS011;50314;50.618;10.642;2023-02-27T05:17:43;2.05;;;1.80;;
64063;SDS011;50314;50.618;10.642;2023-02-27T05:20:13;2.25;;;1.90;;
64063;SDS011;50314;50.618;10.642;2023-02-27T05:25:26;2.75;;;2.20;;
64063;SDS011;50314;50.618;10.642;2023-02-27T05:28:08;1.98;;;1.60;;
64063;SDS011;50314;50.618;10.642;2023-02-27T05:30:56;2.95;;;2.08;;
64063;SDS011;50314;50.618;10.642;2023-02-27T05:33:29;2.88;;;2.05;;
64063;SDS011;50314;50.618;10.642;2023-02-27T05:36:02;2.65;;;1.73;;
64063;SDS011;50314;50.618;10.642;2023-02-27T05:38:29;4.65;;;1.98;;
64063;SDS011;50314;50.618;10.642;2023-02-27T05:41:23;2.25;;;1.30;;
64063;SDS011;50314;50.618;10.642;2023-02-27T05:44:06;1.65;;;1.30;;
64063;SDS011;50314;50.618;10.642;2023-02-27T05:46:37;2.08;;;1.40;;
64063;SDS011;50314;50.618;10.642;2023-02-27T05:49:10;2.25;;;1.35;;
64063;SDS011;50314;50.618;10.642;2023-02-27T05:51:49;2.35;;;1.48;;
64063;SDS011;50314;50.618;10.642;2023-02-27T05:54:34;2.40;;;1.60;;
64063;SDS011;50314;50.618;10.642;2023-02-27T05:57:11;1.65;;;1.30;;
64063;SDS011;50314;50.618;10.642;2023-02-27T06:02:49;2.10;;;1.60;;
64063;SDS011;50314;50.618;10.642;2023-02-27T06:05:15;2.75;;;1.50;;
64063;SDS011;50314;50.618;10.642;2023-02-27T06:07:42;1.73;;;1.30;;
64063;SDS011;50314;50.618;10.642;2023-02-27T06:10:09;2.25;;;1.35;;
64063;SDS011;50314;50.618;10.642;2023-02-27T06:12:38;1.77;;;1.42;;
64063;SDS011;50314;50.618;10.642;2023-02-27T06:15:03;2.10;;;1.48;;
64063;SDS011;50314;50.618;10.642;2023-02-27T06:17:29;2.35;;;1.60;;
64063;SDS011;50314;50.618;10.642;2023-02-27T06:19:54;1.90;;;1.45;;
64063;SDS011;50314;50.618;10.642;2023-02-27T06:22:20;2.97;;;2.10;;
64063;SDS011;50314;50.618;10.642;2023-02-27T06:24:45;2.90;;;1.77;;
64063;SDS011;50314;50.618;10.642;2023-02-27T06:27:10;1.75;;;1.30;;
64063;SDS011;50314;50.618;10.642;2023-02-27T06:29:36;2.05;;;1.30;;
64063;SDS011;50314;50.618;10.642;2023-02-27T06:32:01;2.08;;;1.38;;
64063;SDS011;50314;50.618;10.642;2023-02-27T06:34:27;1.58;;;1.35;;
64063;SDS011;50314;50.618;10.642;2023-02-27T06:36:52;2.42;;;1.50;;
64063;SDS011;50314;50.618;10.642;2023-02-27T06:39:18;2.03;;;1.33;;
64063;SDS011;50314;50.618;10.642;2023-02-27T06:41:43;1.30;;;1.20;;
64063;SDS011;50314;50.618;10.642;2023-02-27T06:44:09;2.00;;;1.20;;
64063;SDS011;50314;50.618;10.642;2023-02-27T06:46:34;1.38;;;1.27;;
64063;SDS011;50314;50.618;10.642;2023-02-27T06:49:00;1.27;;;1.15;;
64063;SDS011;50314;50.618;10.642;2023-02-27T06:51:26;2.00;;;1.38;;
64063;SDS011;50314;50.618;10.642;2023-02-27T06:53:51;1.00;;;0.90;;
64063;SDS011;50314;50.618;10.642;2023-02-27T06:56:17;2.05;;;1.35;;
64063;SDS011;50314;50.618;10.642;2023-02-27T06:58:42;1.25;;;1.10;;
64063;SDS011;50314;50.618;10.642;2023-02-27T07:01:07;1.48;;;1.08;;
64063;SDS011;50314;50.618;10.642;2023-02-27T07:03:34;1.80;;;1.27;;
64063;SDS011;50314;50.618;10.642;2023-02-27T07:05:59;2.42;;;1.13;;
64063;SDS011;50314;50.618;10.642;2023-02-27T07:08:26;2.28;;;1.50;;
64063;SDS011;50314;50.618;10.642;2023-02-27T07:10:52;1.83;;;1.15;;
64063;SDS011;50314;50.618;10.642;2023-02-27T07:13:17;1.33;;;1.10;;
64063;SDS011;50314;50.618;10.642;2023-02-27T07:15:43;1.95;;;1.30;;
64063;SDS011;50314;50.618;10.642;2023-02-27T07:18:09;1.50;;;1.20;;
64063;SDS011;50314;50.618;10.642;2023-02-27T07:20:34;5.28;;;1.20;;
64063;SDS011;50314;50.618;10.642;2023-02-27T07:23:01;1.25;;;0.90;;
64063;SDS011;50314;50.618;10.642;2023-02-27T07:25:27;1.67;;;1.30;;
64063;SDS011;50314;50.618;10.642;2023-02-27T07:27:52;1.73;;;1.00;;
64063;SDS011;50314;50.618;10.642;2023-02-27T07:30:18;1.17;;;0.98;;
64063;SDS011;50314;50.618;10.642;2023-02-27T07:32:43;1.50;;;1.20;;
64063;SDS011;50314;50.618;10.642;2023-02-27T07:35:09;1.20;;;0.90;;
64063;SDS011;50314;50.618;10.642;2023-02-27T07:37:36;1.38;;;1.00;;
64063;SDS011;50314;50.618;10.642;2023-02-27T07:40:02;1.52;;;1.33;;
64063;SDS011;50314;50.618;10.642;2023-02-27T07:42:28;1.08;;;0.98;;
64063;SDS011;50314;50.618;10.642;2023-02-27T07:44:53;1.00;;;0.90;;
64063;SDS011;50314;50.618;10.642;2023-02-27T07:47:18;1.10;;;0.90;;
64063;SDS011;50314;50.618;10.642;2023-02-27T07:49:44;0.95;;;0.80;;
64063;SDS011;50314;50.618;10.642;2023-02-27T07:52:09;1.33;;;1.00;;
64063;SDS011;50314;50.618;10.642;2023-02-27T07:54:35;0.80;;;0.80;;
64063;SDS011;50314;50.618;10.642;2023-02-27T07:57:04;1.67;;;1.00;;
64063;SDS011;50314;50.618;10.642;2023-02-27T07:59:29;1.05;;;0.93;;
64063;SDS011;50314;50.618;10.642;2023-02-27T08:01:55;0.70;;;0.70;;
64063;SDS011;50314;50.618;10.642;2023-02-27T08:04:20;1.48;;;0.77;;
64063;SDS011;50314;50.618;10.642;2023-02-27T08:06:46;0.88;;;0.88;;
64063;SDS011;50314;50.618;10.642;2023-02-27T08:09:11;1.75;;;0.98;;
64063;SDS011;50314;50.618;10.642;2023-02-27T08:11:37;0.82;;;0.75;;
64063;SDS011;50314;50.618;10.642;2023-02-27T08:14:02;0.80;;;0.80;;
64063;SDS011;50314;50.618;10.642;2023-02-27T08:16:28;1.05;;;0.80;;
64063;SDS011;50314;50.618;10.642;2023-02-27T08:18:54;0.98;;;0.88;;
64063;SDS011;50314;50.618;10.642;2023-02-27T08:21:20;1.23;;;0.95;;
64063;SDS011;50314;50.618;10.642;2023-02-27T08:23:46;1.05;;;0.88;;
64063;SDS011;50314;50.618;10.642;2023-02-27T08:26:11;0.75;;;0.70;;
64063;SDS011;50314;50.618;10.642;2023-02-27T08:28:37;0.70;;;0.70;;
64063;SDS011;50314;50.618;10.642;2023-02-27T08:31:02;0.70;;;0.70;;
64063;SDS011;50314;50.618;10.642;2023-02-27T08:33:28;1.13;;;1.02;;
64063;SDS011;50314;50.618;10.642;2023-02-27T08:35:54;1.10;;;1.10;;
64063;SDS011;50314;50.618;10.642;2023-02-27T08:38:19;0.68;;;0.68;;
64063;SDS011;50314;50.618;10.642;2023-02-27T08:40:45;0.77;;;0.77;;
64063;SDS011;50314;50.618;10.642;2023-02-27T08:43:11;1.05;;;0.60;;
64063;SDS011;50314;50.618;10.642;2023-02-27T08:45:36;1.10;;;0.88;;
64063;SDS011;50314;50.618;10.642;2023-02-27T08:48:02;1.33;;;1.23;;
64063;SDS011;50314;50.618;10.642;2023-02-27T08:50:27;0.90;;;0.90;;
64063;SDS011;50314;50.618;10.642;2023-02-27T08:52:52;1.25;;;0.85;;
64063;SDS011;50314;50.618;10.642;2023-02-27T08:55:18;0.60;;;0.60;;
64063;SDS011;50314;50.618;10.642;2023-02-27T08:57:43;0.73;;;0.70;;
64063;SDS011;50314;50.618;10.642;2023-02-27T09:00:09;0.85;;;0.70;;
64063;SDS011;50314;50.618;10.642;2023-02-27T09:02:38;0.70;;;0.70;;
64063;SDS011;50314;50.618;10.642;2023-02-27T09:05:04;0.60;;;0.60;;
64063;SDS011;50314;50.618;10.642;2023-02-27T09:07:29;0.75;;;0.75;;
64063;SDS011;50314;50.618;10.642;2023-02-27T09:09:55;1.00;;;0.82;;
64063;SDS011;50314;50.618;10.642;2023-02-27T09:12:20;1.10;;;0.88;;
64063;SDS011;50314;50.618;10.642;2023-02-27T09:14:46;1.55;;;1.02;;
64063;SDS011;50314;50.618;10.642;2023-02-27T09:17:11;0.70;;;0.70;;
64063;SDS011;50314;50.618;10.642;2023-02-27T09:19:37;3.00;;;0.75;;
64063;SDS011;50314;50.618;10.642;2023-02-27T09:22:02;0.50;;;0.50;;
64063;SDS011;50314;50.618;10.642;2023-02-27T09:24:28;0.55;;;0.50;;
64063;SDS011;50314;50.618;10.642;2023-02-27T09:26:53;0.80;;;0.60;;
64063;SDS011;50314;50.618;10.642;2023-02-27T09:29:19;0.85;;;0.80;;
64063;SDS011;50314;50.618;10.642;2023-02-27T09:31:45;0.65;;;0.65;;
64063;SDS011;50314;50.618;10.642;2023-02-27T09:34:11;1.33;;;0.70;;
64063;SDS011;50314;50.618;10.642;2023-02-27T09:36:36;0.98;;;0.60;;
64063;SDS011;50314;50.618;10.642;2023-02-27T09:39:02;0.50;;;0.50;;
64063;SDS011;50314;50.618;10.642;2023-02-27T09:44:12;0.60;;;0.60;;
64063;SDS011;50314;50.618;10.642;2023-02-27T09:46:59;2.78;;;0.98;;
64063;SDS011;50314;50.618;10.642;2023-02-27T09:49:30;1.35;;;0.68;;
64063;SDS011;50314;50.618;10.642;2023-02-27T09:52:05;0.70;;;0.68;;
64063;SDS011;50314;50.618;10.642;2023-02-27T09:54:31;1.25;;;0.85;;
64063;SDS011;50314;50.618;10.642;2023-02-27T09:56:59;1.30;;;0.70;;
64063;SDS011;50314;50.618;10.642;2023-02-27T09:59:35;0.60;;;0.60;;
64063;SDS011;50314;50.618;10.642;2023-02-27T10:13:06;0.70;;;0.70;;
64063;SDS011;50314;50.618;10.642;2023-02-27T10:15:54;0.40;;;0.40;;
64063;SDS011;50314;50.618;10.642;2023-02-27T10:18:24;0.60;;;0.60;;
64063;SDS011;50314;50.618;10.642;2023-02-27T10:26:12;0.80;;;0.80;;
64063;SDS011;50314;50.618;10.642;2023-02-27T10:28:44;2.08;;;1.08;;
64063;SDS011;50314;50.618;10.642;2023-02-27T10:31:19;3.28;;;1.10;;
64063;SDS011;50314;50.618;10.642;2023-02-27T10:33:48;2.45;;;0.98;;
64063;SDS011;50314;50.618;10.642;2023-02-27T10:36:15;3.63;;;0.90;;
64063;SDS011;50314;50.618;10.642;2023-02-27T10:38:44;2.42;;;1.13;;
64063;SDS011;50314;50.618;10.642;2023-02-27T10:41:16;2.35;;;1.20;;
64063;SDS011;50314;50.618;10.642;2023-02-27T10:43:44;1.83;;;0.98;;
64063;SDS011;50314;50.618;10.642;2023-02-27T10:46:18;2.03;;;1.00;;
64063;SDS011;50314;50.618;10.642;2023-02-27T10:48:49;2.50;;;1.25;;
64063;SDS011;50314;50.618;10.642;2023-02-27T10:51:22;0.80;;;0.70;;
64063;SDS011;50314;50.618;10.642;2023-02-27T10:53:47;1.88;;;0.80;;
64063;SDS011;50314;50.618;10.642;2023-02-27T10:56:15;2.03;;;1.05;;
64063;SDS011;50314;50.618;10.642;2023-02-27T10:58:48;2.00;;;0.95;;
64063;SDS011;50314;50.618;10.642;2023-02-27T11:01:39;1.98;;;1.02;;
64063;SDS011;50314;50.618;10.642;2023-02-27T11:04:10;2.13;;;0.90;;
64063;SDS011;50314;50.618;10.642;2023-02-27T11:06:36;2.00;;;1.02;;
64063;SDS011;50314;50.618;10.642;2023-02-27T11:12:11;1.40;;;0.70;;
64063;SDS011;50314;50.618;10.642;2023-02-27T11:14:51;2.05;;;1.00;;
64063;SDS011;50314;50.618;10.642;2023-02-27T11:17:20;1.77;;;0.93;;
64063;SDS011;50314;50.618;10.642;2023-02-27T11:19:47;1.98;;;1.13;;
64063;SDS011;50314;50.618;10.642;2023-02-27T11:22:20;2.40;;;0.80;;
64063;SDS011;50314;50.618;10.642;2023-02-27T11:24:49;0.95;;;0.82;;
64063;SDS011;50314;50.618;10.642;2023-02-27T11:32:22;1.25;;;0.88;;
64063;SDS011;50314;50.618;10.642;2023-02-27T11:34:49;1.88;;;0.80;;
64063;SDS011;50314;50.618;10.642;2023-02-27T11:37:27;1.15;;;0.80;;
64063;SDS011;50314;50.618;10.642;2023-02-27T11:44:58;1.85;;;0.80;;
64063;SDS011;50314;50.618;10.642;2023-02-27T11:52:36;0.80;;;0.52;;
64063;SDS011;50314;50.618;10.642;2023-02-27T11:55:13;0.80;;;0.50;;
64063;SDS011;50314;50.618;10.642;2023-02-27T11:57:43;0.90;;;0.50;;
64063;SDS011;50314;50.618;10.642;2023-02-27T12:05:27;1.60;;;0.70;;
64063;SDS011;50314;50.618;10.642;2023-02-27T12:08:01;0.70;;;0.50;;
64063;SDS011;50314;50.618;10.642;2023-02-27T12:18:34;1.23;;;0.63;;
64063;SDS011;50314;50.618;10.642;2023-02-27T12:21:06;0.85;;;0.63;;
64063;SDS011;50314;50.618;10.642;2023-02-27T12:23:46;0.60;;;0.52;;
64063;SDS011;50314;50.618;10.642;2023-02-27T12:26:30;1.95;;;0.50;;
64063;SDS011;50314;50.618;10.642;2023-02-27T12:37:46;1.77;;;0.90;;
64063;SDS011;50314;50.618;10.642;2023-02-27T12:40:15;0.82;;;0.70;;
64063;SDS011;50314;50.618;10.642;2023-02-27T12:42:48;0.70;;;0.60;;
64063;SDS011;50314;50.618;10.642;2023-02-27T12:45:42;0.35;;;0.35;;
64063;SDS011;50314;50.618;10.642;2023-02-27T12:51:24;1.33;;;0.60;;
64063;SDS011;50314;50.618;10.642;2023-02-27T13:05:06;0.68;;;0.43;;
64063;SDS011;50314;50.618;10.642;2023-02-27T13:07:47;0.75;;;0.75;;
64063;SDS011;50314;50.618;10.642;2023-02-27T13:10:21;0.55;;;0.50;;
64063;SDS011;50314;50.618;10.642;2023-02-27T13:13:02;1.08;;;0.60;;
64063;SDS011;50314;50.618;10.642;2023-02-27T13:15:41;0.40;;;0.40;;
64063;SDS011;50314;50.618;10.642;2023-02-27T13:21:10;0.47;;;0.47;;
64063;SDS011;50314;50.618;10.642;2023-02-27T13:23:48;1.20;;;0.70;;
64063;SDS011;50314;50.618;10.642;2023-02-27T13:26:21;0.70;;;0.45;;
64063;SDS011;50314;50.618;10.642;2023-02-27T13:31:28;0.30;;;0.30;;
64063;SDS011;50314;50.618;10.642;2023-02-27T13:34:24;0.68;;;0.50;;
64063;SDS011;50314;50.618;10.642;2023-02-27T13:36:51;1.02;;;0.40;;
64063;SDS011;50314;50.618;10.642;2023-02-27T13:42:01;0.65;;;0.50;;
64063;SDS011;50314;50.618;10.642;2023-02-27T13:44:37;1.02;;;0.57;;
64063;SDS011;50314;50.618;10.642;2023-02-27T13:49:58;0.60;;;0.50;;
64063;SDS011;50314;50.618;10.642;2023-02-27T13:52:32;0.70;;;0.47;;
64063;SDS011;50314;50.618;10.642;2023-02-27T13:55:00;0.50;;;0.47;;
64063;SDS011;50314;50.618;10.642;2023-02-27T13:57:33;0.35;;;0.35;;
64063;SDS011;50314;50.618;10.642;2023-02-27T14:00:03;0.38;;;0.38;;
64063;SDS011;50314;50.618;10.642;2023-02-27T14:02:43;0.25;;;0.25;;
64063;SDS011;50314;50.618;10.642;2023-02-27T14:05:15;0.38;;;0.32;;
64063;SDS011;50314;50.618;10.642;2023-02-27T14:08:02;0.63;;;0.60;;
64063;SDS011;50314;50.618;10.642;2023-02-27T14:10:32;0.40;;;0.30;;
64063;SDS011;50314;50.618;10.642;2023-02-27T14:12:59;0.88;;;0.40;;
64063;SDS011;50314;50.618;10.642;2023-02-27T14:17:57;1.10;;;0.80;;
64063;SDS011;50314;50.618;10.642;2023-02-27T14:25:45;1.20;;;0.60;;
64063;SDS011;50314;50.618;10.642;2023-02-27T14:28:17;0.43;;;0.38;;
64063;SDS011;50314;50.618;10.642;2023-02-27T14:30:54;0.70;;;0.40;;
64063;SDS011;50314;50.618;10.642;2023-02-27T14:36:19;0.47;;;0.30;;
64063;SDS011;50314;50.618;10.642;2023-02-27T14:39:56;0.40;;;0.32;;
64063;SDS011;50314;50.618;10.642;2023-02-27T14:44:46;0.32;;;0.25;;
64063;SDS011;50314;50.618;10.642;2023-02-27T14:47:25;0.65;;;0.47;;
64063;SDS011;50314;50.618;10.642;2023-02-27T14:49:57;0.55;;;0.30;;
64063;SDS011;50314;50.618;10.642;2023-02-27T14:52:27;0.40;;;0.40;;
64063;SDS011;50314;50.618;10.642;2023-02-27T14:57:57;0.73;;;0.60;;
64063;SDS011;50314;50.618;10.642;2023-02-27T15:00:33;0.82;;;0.50;;
64063;SDS011;50314;50.618;10.642;2023-02-27T15:03:31;0.38;;;0.30;;
64063;SDS011;50314;50.618;10.642;2023-02-27T15:06:02;0.60;;;0.40;;
64063;SDS011;50314;50.618;10.642;2023-02-27T15:08:36;0.45;;;0.45;;
64063;SDS011;50314;50.618;10.642;2023-02-27T15:11:04;0.50;;;0.40;;
64063;SDS011;50314;50.618;10.642;2023-02-27T15:13:32;1.08;;;0.70;;
64063;SDS011;50314;50.618;10.642;2023-02-27T15:18:52;1.40;;;0.70;;
64063;SDS011;50314;50.618;10.642;2023-02-27T15:21:29;1.13;;;0.80;;
64063;SDS011;50314;50.618;10.642;2023-02-27T15:24:00;0.93;;;0.73;;
64063;SDS011;50314;50.618;10.642;2023-02-27T15:26:29;1.35;;;0.90;;
64063;SDS011;50314;50.618;10.642;2023-02-27T15:29:01;1.90;;;0.88;;
64063;SDS011;50314;50.618;10.642;2023-02-27T15:31:29;1.45;;;0.90;;
64063;SDS011;50314;50.618;10.642;2023-02-27T15:33:56;1.80;;;0.90;;
64063;SDS011;50314;50.618;10.642;2023-02-27T15:36:25;1.40;;;0.80;;
64063;SDS011;50314;50.618;10.642;2023-02-27T15:41:42;1.23;;;0.80;;
64063;SDS011;50314;50.618;10.642;2023-02-27T15:44:13;1.65;;;0.90;;
64063;SDS011;50314;50.618;10.642;2023-02-27T15:46:40;1.08;;;0.60;;
64063;SDS011;50314;50.618;10.642;2023-02-27T15:49:06;2.40;;;1.20;;
64063;SDS011;50314;50.618;10.642;2023-02-27T15:51:38;1.98;;;0.90;;
64063;SDS011;50314;50.618;10.642;2023-02-27T15:54:04;1.90;;;0.90;;
64063;SDS011;50314;50.618;10.642;2023-02-27T15:56:33;1.15;;;0.80;;
64063;SDS011;50314;50.618;10.642;2023-02-27T15:59:01;1.45;;;0.82;;
64063;SDS011;50314;50.618;10.642;2023-02-27T16:01:29;1.27;;;0.85;;
64063;SDS011;50314;50.618;10.642;2023-02-27T16:03:59;2.15;;;1.00;;
64063;SDS011;50314;50.618;10.642;2023-02-27T16:06:30;1.20;;;0.80;;
64063;SDS011;50314;50.618;10.642;2023-02-27T16:11:43;1.48;;;0.80;;
64063;SDS011;50314;50.618;10.642;2023-02-27T16:17:01;0.85;;;0.80;;
64063;SDS011;50314;50.618;10.642;2023-02-27T16:19:29;1.30;;;0.80;;
64063;SDS011;50314;50.618;10.642;2023-02-27T16:22:13;1.10;;;0.95;;
64063;SDS011;50314;50.618;10.642;2023-02-27T16:24:40;2.28;;;1.00;;
64063;SDS011;50314;50.618;10.642;2023-02-27T16:27:14;1.17;;;0.73;;
64063;SDS011;50314;50.618;10.642;2023-02-27T16:29:47;2.05;;;0.88;;
64063;SDS011;50314;50.618;10.642;2023-02-27T16:32:18;1.65;;;0.77;;
64063;SDS011;50314;50.618;10.642;2023-02-27T16:34:48;1.50;;;1.00;;
64063;SDS011;50314;50.618;10.642;2023-02-27T16:37:21;1.83;;;1.10;;
64063;SDS011;50314;50.618;10.642;2023-02-27T16:39:51;1.73;;;1.10;;
64063;SDS011;50314;50.618;10.642;2023-02-27T16:42:18;1.20;;;0.90;;
64063;SDS011;50314;50.618;10.642;2023-02-27T16:44:44;1.92;;;1.08;;
64063;SDS011;50314;50.618;10.642;2023-02-27T16:47:10;1.40;;;0.90;;
64063;SDS011;50314;50.618;10.642;2023-02-27T16:49:35;1.48;;;0.90;;
64063;SDS011;50314;50.618;10.642;2023-02-27T16:52:00;1.73;;;1.30;;
64063;SDS011;50314;50.618;10.642;2023-02-27T16:54:27;2.22;;;1.40;;
64063;SDS011;50314;50.618;10.642;2023-02-27T16:56:53;2.58;;;1.38;;
64063;SDS011;50314;50.618;10.642;2023-02-27T17:01:57;1.73;;;1.23;;
64063;SDS011;50314;50.618;10.642;2023-02-27T17:04:24;1.98;;;1.30;;
64063;SDS011;50314;50.618;10.642;2023-02-27T17:06:50;2.60;;;1.10;;
64063;SDS011;50314;50.618;10.642;2023-02-27T17:09:16;2.00;;;1.52;;
64063;SDS011;50314;50.618;10.642;2023-02-27T17:11:42;2.13;;;1.10;;
64063;SDS011;50314;50.618;10.642;2023-02-27T17:14:07;2.30;;;1.35;;
64063;SDS011;50314;50.618;10.642;2023-02-27T17:16:33;2.10;;;1.40;;
64063;SDS011;50314;50.618;10.642;2023-02-27T17:18:59;1.17;;;1.00;;
64063;SDS011;50314;50.618;10.642;2023-02-27T17:21:24;2.20;;;1.30;;
64063;SDS011;50314;50.618;10.642;2023-02-27T17:23:49;2.50;;;1.25;;
64063;SDS011;50314;50.618;10.642;2023-02-27T17:26:15;1.52;;;1.08;;
64063;SDS011;50314;50.618;10.642;2023-02-27T17:28:40;2.10;;;1.20;;
64063;SDS011;50314;50.618;10.642;2023-02-27T17:31:09;1.63;;;1.10;;
64063;SDS011;50314;50.618;10.642;2023-02-27T17:33:38;1.15;;;0.93;;
64063;SDS011;50314;50.618;10.642;2023-02-27T17:36:04;1.60;;;1.25;;
64063;SDS011;50314;50.618;10.642;2023-02-27T17:38:31;1.52;;;1.20;;
64063;SDS011;50314;50.618;10.642;2023-02-27T17:40:57;1.95;;;1.10;;
64063;SDS011;50314;50.618;10.642;2023-02-27T17:43:23;2.15;;;1.30;;
64063;SDS011;50314;50.618;10.642;2023-02-27T17:45:48;1.33;;;1.10;;
64063;SDS011;50314;50.618;10.642;2023-02-27T17:48:14;2.35;;;1.55;;
64063;SDS011;50314;50.618;10.642;2023-02-27T17:50:39;2.30;;;1.30;;
64063;SDS011;50314;50.618;10.642;2023-02-27T17:53:05;1.40;;;1.00;;
64063;SDS011;50314;50.618;10.642;2023-02-27T17:55:30;2.33;;;1.75;;